首页
METAR-TAF:

METAR-TAF

机场 :

吉杰勒, 阿尔及利亚

纬度: 36-53N, 经度: 005-49E, 海拔: 2米

当前天气观测

该预报发布于16分钟前的13:00 UTC
风速5节,风向
温度 26°C
湿度 34%
气压 1016 hPa
能见度10公里或以上
1500米以下无云,无积雨云

METAR: DAAV 211300Z 36005KT CAVOK 26/09 Q1016

时间: 14:16 (13:16 UTC)

预报

该预报发布于2小时和16分钟前的11:00 UTC
预报有效从21日的 12点(UTC)到 22日的 12点(UTC)
风速12节,风向西南
能见度10公里或以上
1500米以下无云,无积雨云
成为
从 20日的 16点(UTC)到 21日的 18点(UTC)
风速8节,风向东南

TAF: DAAV 211100Z 2112/2212 22012KT CAVOK BECMG 2016/2118 14008KT

超过4000个机场的气象观测和天气预报(METAR&TAF报告)。

可查询的气象台以黄色和红色小点在地图上表示。

将鼠标移到小点上方,可查看气象台名称。

然后点击查看天气观测和预报。

如需切换地图:点击带黑十字的绿色按钮放大地图;点击带横线的绿色按钮缩小地图;或者点击绿色箭头查看邻近地区的地图。


METAR-TAF: